K5AGY Weather Reports


Display with metric or nautical units.
time (UTC)temp
F
wind
direction
speed
MPH
gust
MPH
rain 1hr
in
rain 24hr
in
rain mn
in
humidity
%
barometer
mb
20240622101534 74 4 1.0 2.0 0.00 0.00 0.00 85 1017.5
20240622100012 74 11 1.0 2.0 0.00 0.00 0.00 85 1017.5
20240622094557 74 1 1.0 3.0 0.00 0.00 0.00 85 1017.4
20240622093035 74 21 0.0 0.0 0.00 0.00 0.00 85 1017.5
20240622091514 74 54 0.0 0.0 0.00 0.00 0.00 85 1017.5
20240622090055 74 55 0.0 0.0 0.00 0.00 0.00 85 1017.4
20240622084536 74 58 0.0 0.0 0.00 0.00 0.00 85 1017.5
20240622083016 74 75 0.0 0.0 0.00 0.00 0.00 85 1017.4
20240622081600 74 75 0.0 0.0 0.00 0.00 0.00 84 1017.5
20240622080034 74 108 0.0 0.0 0.00 0.00 0.00 84 1017.5
20240622074511 75 108 0.0 0.0 0.00 0.00 0.00 84 1017.6
20240622073054 75 108 0.0 0.0 0.00 0.00 0.00 84 1017.6
20240622071541 75 108 0.0 0.0 0.00 0.00 0.00 84 1017.7
20240622070020 75 108 0.0 0.0 0.00 0.00 0.00 84 1017.8
20240622064556 75 108 0.0 0.0 0.00 0.00 0.00 83 1017.8
20240622063035 76 108 0.0 0.0 0.00 0.00 0.00 83 1017.8
20240622061514 76 108 0.0 0.0 0.00 0.00 0.00 83 1017.8
20240622060039 76 108 0.0 0.0 0.00 0.00 0.00 82 1017.8
20240622054515 77 108 0.0 0.0 0.00 0.00 0.00 81 1017.7
20240622053058 77 108 0.0 0.0 0.00 0.00 0.00 81 1017.6
20240622051634 77 108 0.0 0.0 0.00 0.00 0.00 81 1017.7
20240622050101 77 108 0.0 0.0 0.00 0.00 0.00 80 1017.8
20240622044541 78 113 0.0 1.0 0.00 0.00 0.00 79 1017.8
20240622043024 78 113 0.0 1.0 0.00 0.00 0.00 79 1017.8
20240622041514 78 113 0.0 2.0 0.00 0.00 0.00 78 1017.8
20240622040044 79 121 0.0 2.0 0.00 0.00 0.00 78 1017.8
20240622034531 79 121 1.0 3.0 0.00 0.00 0.00 78 1017.5
20240622033011 80 125 0.0 2.0 0.00 0.00 0.00 77 1017.5
20240622031557 80 94 0.0 3.0 0.00 0.00 0.00 77 1017.3
20240622030039 80 90 0.0 2.0 0.00 0.00 0.00 76 1017.2
20240622024523 80 114 0.0 2.0 0.00 0.00 0.00 76 1017.1
20240622023007 81 113 1.0 3.0 0.00 0.00 0.00 75 1016.9
20240622021551 81 126 0.0 1.0 0.00 0.00 0.00 75 1016.8
20240622020035 82 125 0.0 0.0 0.00 0.00 0.00 71 1016.6
20240622014518 82 125 0.0 1.0 0.00 0.00 0.00 70 1016.6
20240622013100 83 125 0.0 1.0 0.00 0.00 0.00 68 1016.5
20240622011555 84 119 0.0 2.0 0.00 0.00 0.00 66 1016.4
20240622010025 85 126 1.0 7.0 0.00 0.00 0.00 63 1016.3
20240622004508 86 122 3.0 7.0 0.00 0.00 0.00 64 1016.3
20240622003107 87 97 4.0 8.0 0.00 0.00 0.00 62 1016.2
20240622001539 86 129 2.0 6.0 0.00 0.00 0.00 63 1016.2
20240622000021 86 126 3.0 7.0 0.00 0.00 0.00 65 1016.1
20240621234510 87 120 6.0 11.0 0.00 0.00 0.00 61 1016.1
20240621233046 89 111 6.0 12.0 0.00 0.00 0.00 59 1016.0
20240621231528 89 79 6.0 11.0 0.00 0.00 0.00 56 1016.1
20240621230011 90 65 5.0 9.0 0.00 0.00 0.00 57 1016.0
20240621224603 89 47 5.0 11.0 0.00 0.00 0.00 56 1016.1
20240621223035 89 72 5.0 12.0 0.00 0.00 0.00 57 1016.1
20240621221512 89 90 7.0 12.0 0.00 0.00 0.00 55 1016.2
20240621220046 90 71 5.0 12.0 0.00 0.00 0.00 57 1016.5
20240621214528 89 75 6.0 11.0 0.00 0.02 0.00 60 1016.6
20240621213006 89 63 7.0 14.0 0.00 0.02 0.00 58 1016.7
20240621211552 90 83 5.0 10.0 0.00 0.02 0.00 55 1016.8
20240621210030 91 64 2.0 13.0 0.00 0.02 0.00 54 1016.8
20240621204504 90 66 4.0 10.0 0.00 0.02 0.00 54 1016.9
20240621203042 90 69 2.0 5.0 0.00 0.02 0.00 55 1017.1
20240621201523 91 72 4.0 7.0 0.00 0.02 0.00 53 1017.2
20240621200002 90 55 3.0 8.0 0.00 0.02 0.00 59 1017.3
20240621194601 90 53 2.0 9.0 0.00 0.04 0.00 58 1017.5
20240621193029 89 8 6.0 10.0 0.00 0.04 0.00 59 1017.8
20240621191505 89 54 3.0 10.0 0.00 0.04 0.00 58 1018.0
20240621190047 89 82 2.0 8.0 0.00 0.04 0.00 57 1018.3
20240621184526 89 46 3.0 11.0 0.00 0.04 0.00 59 1018.4
20240621183010 90 60 3.0 9.0 0.00 0.04 0.00 57 1018.6
20240621181550 89 137 1.0 5.0 0.00 0.04 0.00 61 1018.6
20240621180027 89 63 2.0 9.0 0.00 0.04 0.00 60 1018.9
20240621174510 89 61 4.0 8.0 0.00 0.07 0.00 57 1019.0
20240621173102 89 72 3.0 9.0 0.00 0.07 0.00 62 1019.1
20240621171530 88 51 5.0 11.0 0.00 0.07 0.00 61 1019.2
20240621170005 87 89 4.0 9.0 0.00 0.07 0.00 61 1019.2
20240621164551 86 83 3.0 10.0 0.00 0.07 0.00 65 1019.3
20240621163037 87 108 3.0 9.0 0.00 0.07 0.00 65 1019.3
20240621161558 86 70 3.0 13.0 0.00 0.07 0.00 67 1019.3
20240621160037 86 79 6.0 14.0 0.00 0.07 0.00 64 1019.4
20240621154511 84 77 4.0 10.0 0.00 0.07 0.00 69 1019.4
20240621153054 84 75 3.0 7.0 0.00 0.07 0.00 72 1019.6
20240621151525 84 72 2.0 7.0 0.00 0.07 0.00 72 1019.6
20240621150105 82 62 2.0 8.0 0.00 0.07 0.00 75 1019.7
20240621144522 82 68 2.0 9.0 0.00 0.07 0.00 77 1019.6
20240621143102 82 68 3.0 9.0 0.00 0.07 0.00 76 1019.5
20240621141533 81 64 2.0 5.0 0.00 0.07 0.00 79 1019.4
20240621140004 79 68 1.0 8.0 0.00 0.07 0.00 82 1019.2
20240621134539 79 71 1.0 4.0 0.00 0.09 0.00 82 1019.0
20240621133016 78 77 2.0 5.0 0.00 0.09 0.00 83 1018.8
20240621131644 78 36 2.0 5.0 0.00 0.09 0.00 84 1018.7
20240621130043 77 29 1.0 5.0 0.00 0.09 0.00 85 1018.8
20240621124533 77 49 2.0 4.0 0.00 0.09 0.00 85 1018.5
20240621123005 77 7 1.0 4.0 0.00 0.09 0.00 85 1018.5
20240621121554 76 1 1.0 4.0 0.00 0.09 0.00 85 1018.4
20240621120033 76 4 3.0 6.0 0.00 0.09 0.00 86 1018.2
20240621114515 76 20 2.0 6.0 0.00 0.09 0.00 86 1018.2
20240621113057 76 357 3.0 5.0 0.00 0.09 0.00 86 1018.2
20240621111541 76 10 1.0 5.0 0.00 0.09 0.00 85 1018.1
20240621110022 76 357 1.0 4.0 0.00 0.09 0.00 85 1018.0
20240621104506 75 48 0.0 1.0 0.00 0.09 0.00 85 1017.9
20240621103052 75 54 0.0 2.0 0.00 0.09 0.00 85 1017.8